createdAt,value
2017-09-01T00:00:43.061Z,9.80
2017-09-01T00:03:11.175Z,7.40
2017-09-01T00:05:39.592Z,7.80
2017-09-01T00:08:07.733Z,7.70
2017-09-01T00:10:36.772Z,7.90
2017-09-01T00:13:04.879Z,8.73
2017-09-01T00:15:32.976Z,8.23
2017-09-01T00:18:02.159Z,7.50
2017-09-01T00:20:30.268Z,6.80
2017-09-01T00:22:59.183Z,7.00
2017-09-01T00:25:28.108Z,8.30
2017-09-01T00:27:57.251Z,8.20
2017-09-01T00:30:26.367Z,9.23
2017-09-01T00:32:54.528Z,8.50
2017-09-01T00:35:22.680Z,8.77
2017-09-01T00:37:52.603Z,9.37
2017-09-01T00:40:21.634Z,10.53
2017-09-01T00:42:50.480Z,10.30
2017-09-01T00:45:18.689Z,9.87
2017-09-01T00:47:46.819Z,9.80
2017-09-01T00:50:15.932Z,10.10
2017-09-01T00:52:44.068Z,9.87
2017-09-01T00:55:13.108Z,10.80
2017-09-01T00:57:43.133Z,10.00
2017-09-01T01:00:11.267Z,10.80
2017-09-01T01:02:40.276Z,9.93
2017-09-01T01:05:09.514Z,10.30
2017-09-01T01:07:37.629Z,11.60
2017-09-01T01:10:05.767Z,11.27
2017-09-01T01:12:34.145Z,10.33
2017-09-01T01:15:02.520Z,10.97
2017-09-01T01:17:30.631Z,10.50
2017-09-01T01:19:58.732Z,12.40
2017-09-01T01:22:26.877Z,10.97
2017-09-01T01:24:55.072Z,11.87
2017-09-01T01:27:24.163Z,11.57
2017-09-01T01:29:52.380Z,11.80
2017-09-01T01:32:21.328Z,11.37
2017-09-01T01:34:50.304Z,11.53
2017-09-01T01:37:21.085Z,12.10
2017-09-01T01:39:50.028Z,12.00
2017-09-01T01:42:19.060Z,11.87
2017-09-01T01:44:47.179Z,11.30
2017-09-01T01:47:15.507Z,12.93
2017-09-01T01:49:44.768Z,11.43
2017-09-01T01:52:13.513Z,13.40
2017-09-01T01:54:42.521Z,12.07
2017-09-01T01:57:11.438Z,11.90
2017-09-01T01:59:39.640Z,13.40
2017-09-01T02:02:08.045Z,14.50
2017-09-01T02:04:36.147Z,14.03
2017-09-01T02:07:08.040Z,13.87
2017-09-01T02:09:36.119Z,14.60
2017-09-01T02:12:04.268Z,15.27
2017-09-01T02:14:32.368Z,15.43
2017-09-01T02:17:00.491Z,15.50
2017-09-01T02:19:29.508Z,17.93
2017-09-01T02:21:59.705Z,17.10
2017-09-01T02:24:28.061Z,17.87
2017-09-01T02:26:56.706Z,17.70
2017-09-01T02:29:24.964Z,18.20
2017-09-01T02:31:53.055Z,19.27
2017-09-01T02:34:21.853Z,22.13
2017-09-01T02:36:50.237Z,21.43
2017-09-01T02:39:19.177Z,23.57
2017-09-01T02:41:47.404Z,23.83
2017-09-01T02:44:15.540Z,23.27
2017-09-01T02:46:43.828Z,21.77
2017-09-01T02:49:11.943Z,22.87
2017-09-01T02:51:40.048Z,23.40
2017-09-01T02:54:09.306Z,22.10
2017-09-01T02:56:37.656Z,22.27
2017-09-01T02:59:05.816Z,22.03
2017-09-01T03:01:33.931Z,20.90
2017-09-01T03:04:02.064Z,21.37
2017-09-01T03:06:30.173Z,21.40
2017-09-01T03:08:58.472Z,22.00
2017-09-01T03:11:26.719Z,21.40
2017-09-01T03:13:54.830Z,22.07
2017-09-01T03:16:22.966Z,21.77
2017-09-01T03:18:51.113Z,22.10
2017-09-01T03:21:19.476Z,21.20
2017-09-01T03:23:48.248Z,20.70
2017-09-01T03:26:16.682Z,20.67
2017-09-01T03:28:44.779Z,22.40
2017-09-01T03:31:14.931Z,20.70
2017-09-01T03:33:43.844Z,21.87
2017-09-01T03:36:11.990Z,20.27
2017-09-01T03:38:41.332Z,20.57
2017-09-01T03:41:10.343Z,21.73
2017-09-01T03:43:39.301Z,21.20
2017-09-01T03:46:07.534Z,23.20
2017-09-01T03:48:36.468Z,22.83
2017-09-01T03:51:05.497Z,21.60
2017-09-01T03:53:34.508Z,21.77
2017-09-01T03:56:03.436Z,21.90
2017-09-01T03:58:31.612Z,21.53
2017-09-01T04:00:59.832Z,21.93
2017-09-01T04:03:28.165Z,20.97
2017-09-01T04:05:57.063Z,22.10
2017-09-01T04:08:25.310Z,22.27
2017-09-01T04:10:54.583Z,22.40
2017-09-01T04:13:23.645Z,23.10
2017-09-01T04:15:51.767Z,22.20
2017-09-01T04:18:20.115Z,20.00
2017-09-01T04:20:48.200Z,20.47
2017-09-01T04:23:16.323Z,21.30
2017-09-01T04:25:44.796Z,21.50
2017-09-01T04:28:13.335Z,21.83
2017-09-01T04:30:42.607Z,23.70
2017-09-01T04:33:10.983Z,21.00
2017-09-01T04:35:39.871Z,21.70
2017-09-01T04:38:08.871Z,21.37
2017-09-01T04:40:36.989Z,22.77
2017-09-01T04:43:05.099Z,22.30
2017-09-01T04:45:33.422Z,21.13
2017-09-01T04:48:02.379Z,21.00
2017-09-01T04:50:32.331Z,22.00
2017-09-01T04:53:00.512Z,20.67
2017-09-01T04:55:28.615Z,21.27
2017-09-01T04:57:56.704Z,21.93
2017-09-01T05:00:24.971Z,21.50
2017-09-01T05:02:53.295Z,21.17
2017-09-01T05:05:23.547Z,21.07
2017-09-01T05:07:51.948Z,20.23
2017-09-01T05:10:20.119Z,20.57
2017-09-01T05:12:48.960Z,20.47
2017-09-01T05:15:17.080Z,20.83
2017-09-01T05:17:45.203Z,20.13
2017-09-01T05:20:13.619Z,21.33
2017-09-01T05:22:41.956Z,22.03
2017-09-01T05:25:10.503Z,19.73
2017-09-01T05:27:38.664Z,21.70
2017-09-01T05:30:07.000Z,21.73
2017-09-01T05:32:35.438Z,21.67
2017-09-01T05:35:03.594Z,21.90
2017-09-01T05:37:31.839Z,22.60
2017-09-01T05:40:00.884Z,21.97
2017-09-01T05:42:29.847Z,20.63
2017-09-01T05:44:58.716Z,21.33
2017-09-01T05:47:26.909Z,20.70
2017-09-01T05:49:55.132Z,22.93
2017-09-01T05:52:24.268Z,21.00
2017-09-01T05:54:52.452Z,19.90
2017-09-01T05:57:20.650Z,20.83
2017-09-01T05:59:49.006Z,20.10
2017-09-01T06:02:17.123Z,21.13
2017-09-01T06:04:45.452Z,19.47
2017-09-01T06:07:13.819Z,19.83
2017-09-01T06:09:42.187Z,19.80
2017-09-01T06:12:10.279Z,20.73
2017-09-01T06:14:39.499Z,19.17
2017-09-01T06:17:08.531Z,21.00
2017-09-01T06:19:36.610Z,20.37
2017-09-01T06:22:04.970Z,20.17
2017-09-01T06:24:33.331Z,18.70
2017-09-01T06:27:01.451Z,18.43
2017-09-01T06:29:29.884Z,18.50
2017-09-01T06:31:58.191Z,18.13
2017-09-01T06:34:26.569Z,17.40
2017-09-01T06:36:55.232Z,18.90
2017-09-01T06:39:24.276Z,19.33
2017-09-01T06:41:52.528Z,17.20
2017-09-01T06:44:20.958Z,18.80
2017-09-01T06:46:49.418Z,19.27
2017-09-01T06:49:17.567Z,18.00
2017-09-01T06:51:46.860Z,18.53
2017-09-01T06:54:15.332Z,18.37
2017-09-01T06:56:43.502Z,17.20
2017-09-01T06:59:11.599Z,18.43
2017-09-01T07:01:39.716Z,18.83
2017-09-01T07:04:07.827Z,19.60
2017-09-01T07:06:36.796Z,19.70
2017-09-01T07:09:04.930Z,16.37
2017-09-01T07:11:33.271Z,17.03
2017-09-01T07:14:01.403Z,18.67
2017-09-01T07:16:29.697Z,19.73
2017-09-01T07:19:01.838Z,20.43
2017-09-01T07:21:31.252Z,17.37
2017-09-01T07:23:59.773Z,18.30
2017-09-01T07:26:27.865Z,18.90
2017-09-01T07:28:55.984Z,18.30
2017-09-01T07:31:24.170Z,19.47
2017-09-01T07:33:52.272Z,19.37
2017-09-01T07:36:21.072Z,18.93
2017-09-01T07:38:49.470Z,19.80
2017-09-01T07:41:17.620Z,18.73
2017-09-01T07:43:45.736Z,20.40
2017-09-01T07:46:13.844Z,19.40
2017-09-01T07:48:42.783Z,17.80
2017-09-01T07:51:11.058Z,16.40
2017-09-01T07:53:39.530Z,16.00
2017-09-01T07:56:07.631Z,17.50
2017-09-01T07:58:35.831Z,18.87
2017-09-01T08:01:03.951Z,16.30
2017-09-01T08:03:32.134Z,16.57
2017-09-01T08:06:01.153Z,17.97
2017-09-01T08:08:29.268Z,16.50
2017-09-01T08:10:57.358Z,15.60
2017-09-01T08:13:25.481Z,14.60
2017-09-01T08:15:53.574Z,16.43
2017-09-01T08:18:23.039Z,16.03
2017-09-01T08:20:51.958Z,15.87
2017-09-01T08:23:20.926Z,15.13
2017-09-01T08:25:49.141Z,17.90
2017-09-01T08:28:18.167Z,16.00
2017-09-01T08:30:46.538Z,14.27
2017-09-01T08:33:14.631Z,15.07
2017-09-01T08:35:42.727Z,14.23
2017-09-01T08:38:11.794Z,15.10
2017-09-01T08:40:39.976Z,14.57
2017-09-01T08:43:08.353Z,15.90
2017-09-01T08:45:36.465Z,16.87
2017-09-01T08:48:04.624Z,17.50
2017-09-01T08:50:32.739Z,16.53
2017-09-01T08:53:00.932Z,16.60
2017-09-01T08:55:29.107Z,14.70
2017-09-01T08:57:57.327Z,15.40
2017-09-01T09:00:25.467Z,16.70
2017-09-01T09:02:53.702Z,15.77
2017-09-01T09:05:21.798Z,15.30
2017-09-01T09:07:49.907Z,15.40
2017-09-01T09:10:18.004Z,14.20
2017-09-01T09:12:46.169Z,13.60
2017-09-01T09:15:14.351Z,13.50
2017-09-01T09:17:42.468Z,13.20
2017-09-01T09:20:10.591Z,13.50
2017-09-01T09:22:39.588Z,13.37
2017-09-01T09:25:07.703Z,12.67
2017-09-01T09:27:36.707Z,13.80
2017-09-01T09:30:04.852Z,12.17
2017-09-01T09:32:33.018Z,10.33
2017-09-01T09:35:01.172Z,9.37
2017-09-01T09:37:29.276Z,9.40
2017-09-01T09:39:57.389Z,9.53
2017-09-01T09:42:25.508Z,10.97
2017-09-01T09:44:54.657Z,10.93
2017-09-01T09:47:22.788Z,12.70
2017-09-01T09:49:50.883Z,13.23
2017-09-01T09:52:19.856Z,12.53
2017-09-01T09:54:48.865Z,13.20
2017-09-01T09:57:16.955Z,13.97
2017-09-01T09:59:45.864Z,13.20
2017-09-01T10:02:14.029Z,13.90
2017-09-01T10:04:43.228Z,12.50
2017-09-01T10:07:12.124Z,13.87
2017-09-01T10:09:40.254Z,14.37
2017-09-01T10:12:08.364Z,14.97
2017-09-01T10:14:37.311Z,12.80
2017-09-01T10:17:05.694Z,14.00
2017-09-01T10:19:33.808Z,13.43
2017-09-01T10:22:02.355Z,13.50
2017-09-01T10:24:30.457Z,12.40
2017-09-01T10:26:59.773Z,12.40
2017-09-01T10:29:27.884Z,10.60
2017-09-01T10:31:57.076Z,9.20
2017-09-01T10:34:26.113Z,9.23
2017-09-01T10:36:54.351Z,10.53
2017-09-01T10:39:23.277Z,10.40
2017-09-01T10:41:52.611Z,9.37
2017-09-01T10:44:20.857Z,9.97
2017-09-01T10:46:49.744Z,9.90
2017-09-01T10:49:33.081Z,9.20
2017-09-01T10:52:19.884Z,8.87
2017-09-01T10:55:06.510Z,9.73
2017-09-01T11:00:46.524Z,6.60
2017-09-01T11:03:15.534Z,9.53
2017-09-01T11:05:43.694Z,6.93
2017-09-01T11:08:13.245Z,5.93
2017-09-01T11:10:42.264Z,5.20
2017-09-01T11:13:11.378Z,7.20
2017-09-01T11:15:39.472Z,4.47
2017-09-01T11:18:07.580Z,4.47
2017-09-01T11:20:41.423Z,5.50
2017-09-01T11:23:15.241Z,6.63
2017-09-01T11:25:44.130Z,5.40
2017-09-01T11:28:13.088Z,4.93
2017-09-01T11:30:41.249Z,4.93
2017-09-01T11:33:09.367Z,5.17
2017-09-01T11:35:38.408Z,5.40
2017-09-01T11:38:06.495Z,5.60
2017-09-01T11:40:37.723Z,5.30
2017-09-01T11:43:05.862Z,6.10
2017-09-01T11:45:33.948Z,5.57
2017-09-01T11:48:02.248Z,5.67
2017-09-01T11:50:30.352Z,5.30
2017-09-01T11:52:58.607Z,5.70
2017-09-01T11:55:27.513Z,5.47
2017-09-01T11:57:55.612Z,5.77
2017-09-01T12:00:23.680Z,5.50
2017-09-01T12:02:51.796Z,4.90
2017-09-01T12:05:19.910Z,4.73
2017-09-01T12:07:48.132Z,4.40
2017-09-01T12:10:17.176Z,3.57
2017-09-01T12:12:47.296Z,4.20
2017-09-01T12:15:15.495Z,4.10
2017-09-01T12:17:43.597Z,5.03
2017-09-01T12:20:12.555Z,3.93
2017-09-01T12:22:40.678Z,4.40
2017-09-01T12:25:08.759Z,5.10
2017-09-01T12:27:37.769Z,6.20
2017-09-01T12:30:06.875Z,6.30
2017-09-01T12:38:50.251Z,4.87
2017-09-01T12:41:18.356Z,4.70
2017-09-01T12:43:47.373Z,3.77
2017-09-01T12:46:19.467Z,5.50
2017-09-01T12:48:51.208Z,4.50
2017-09-01T12:51:20.307Z,5.20
2017-09-01T12:53:48.407Z,4.73
2017-09-01T12:59:06.219Z,4.83
2017-09-01T13:01:36.275Z,4.47
2017-09-01T13:04:05.184Z,4.10
2017-09-01T13:06:33.403Z,3.87
2017-09-01T13:09:01.522Z,3.67
2017-09-01T13:11:30.566Z,3.80
2017-09-01T13:14:01.496Z,3.37
2017-09-01T13:16:30.200Z,4.90
2017-09-01T13:18:59.193Z,4.20
2017-09-01T13:21:29.805Z,3.63
2017-09-01T13:23:59.631Z,4.33
2017-09-01T13:26:28.652Z,5.50
2017-09-01T13:28:57.809Z,4.03
2017-09-01T13:31:27.573Z,4.77
2017-09-01T13:33:56.778Z,5.90
2017-09-01T13:36:24.887Z,5.80
2017-09-01T13:38:53.155Z,6.00
2017-09-01T13:41:21.252Z,6.90
2017-09-01T13:43:49.433Z,5.03
2017-09-01T13:46:18.505Z,6.07
2017-09-01T13:48:48.189Z,5.43
2017-09-01T13:51:16.336Z,6.70
2017-09-01T13:53:44.430Z,5.60
2017-09-01T13:56:12.538Z,5.67
2017-09-01T13:58:42.568Z,6.53
2017-09-01T14:01:10.700Z,6.90
2017-09-01T14:03:39.188Z,6.40
2017-09-01T14:06:07.324Z,6.13
2017-09-01T14:08:36.477Z,6.33
2017-09-01T14:11:07.435Z,5.30
2017-09-01T14:13:35.644Z,5.80
2017-09-01T14:16:04.556Z,5.17
2017-09-01T14:18:33.489Z,8.40
2017-09-01T14:21:02.307Z,4.63
2017-09-01T14:23:30.480Z,5.90
2017-09-01T14:25:58.586Z,4.30
2017-09-01T14:28:26.684Z,4.40
2017-09-01T14:30:54.817Z,3.87
2017-09-01T14:33:23.645Z,4.70
2017-09-01T14:35:51.837Z,4.67
2017-09-01T14:38:19.941Z,4.60
2017-09-01T14:40:48.083Z,4.13
2017-09-01T14:43:16.279Z,4.07
2017-09-01T14:45:44.380Z,4.37
2017-09-01T14:48:12.583Z,4.03
2017-09-01T14:50:40.673Z,4.10
2017-09-01T14:53:08.863Z,4.37
2017-09-01T14:55:36.968Z,7.27
2017-09-01T14:58:05.100Z,3.80
2017-09-01T15:00:33.536Z,4.43
2017-09-01T15:03:01.637Z,4.43
2017-09-01T15:05:30.687Z,3.80
2017-09-01T15:07:59.603Z,4.37
2017-09-01T15:10:27.714Z,3.93
2017-09-01T15:12:55.822Z,4.00
2017-09-01T15:15:23.947Z,4.60
2017-09-01T15:17:52.046Z,4.40
2017-09-01T15:20:20.900Z,4.07
2017-09-01T15:22:49.949Z,4.17
2017-09-01T15:25:18.948Z,3.90
2017-09-01T15:27:48.005Z,5.30
2017-09-01T15:30:16.114Z,4.80
2017-09-01T15:32:44.992Z,4.70
2017-09-01T15:35:13.115Z,4.73
2017-09-01T15:37:41.620Z,5.40
2017-09-01T15:40:10.654Z,6.63
2017-09-01T15:42:38.746Z,6.47
2017-09-01T15:45:06.838Z,5.97
2017-09-01T15:47:36.093Z,6.33
2017-09-01T15:50:05.326Z,6.43
2017-09-01T15:52:33.485Z,4.87
2017-09-01T15:55:01.704Z,4.90
2017-09-01T15:57:29.805Z,6.57
2017-09-01T15:59:57.915Z,6.80
2017-09-01T16:02:26.860Z,6.40
2017-09-01T16:04:56.011Z,6.57
2017-09-01T16:07:25.832Z,6.10
2017-09-01T16:09:54.776Z,5.80
2017-09-01T16:12:22.873Z,6.67
2017-09-01T16:14:52.248Z,5.63
2017-09-01T16:17:20.373Z,4.93
2017-09-01T16:19:49.403Z,4.83
2017-09-01T16:22:19.315Z,4.93
2017-09-01T16:24:49.445Z,5.10
2017-09-01T16:27:18.359Z,4.60
2017-09-01T16:29:46.488Z,4.50
2017-09-01T16:32:15.340Z,8.57
2017-09-01T16:34:43.459Z,6.13
2017-09-01T16:37:11.622Z,5.13
2017-09-01T16:39:39.717Z,5.10
2017-09-01T16:42:07.801Z,5.40
2017-09-01T16:44:36.687Z,4.17
2017-09-01T16:47:04.820Z,4.23
2017-09-01T16:49:32.924Z,5.90
2017-09-01T16:52:01.012Z,3.90
2017-09-01T16:54:29.112Z,3.80
2017-09-01T16:56:57.188Z,4.13
2017-09-01T16:59:25.528Z,4.97
2017-09-01T17:01:55.584Z,4.20
2017-09-01T17:04:23.707Z,4.97
2017-09-01T17:06:51.875Z,4.80
2017-09-01T17:09:21.275Z,5.90
2017-09-01T17:11:49.481Z,5.43
2017-09-01T17:14:17.565Z,4.73
2017-09-01T17:16:46.612Z,5.13
2017-09-01T17:19:14.732Z,5.00
2017-09-01T17:21:43.722Z,5.97
2017-09-01T17:24:11.843Z,5.40
2017-09-01T17:26:39.929Z,5.30
2017-09-01T17:29:08.040Z,4.60
2017-09-01T17:31:40.740Z,4.90
2017-09-01T17:34:09.731Z,4.37
2017-09-01T17:36:37.815Z,4.20
2017-09-01T17:39:05.957Z,4.40
2017-09-01T17:41:34.118Z,5.33
2017-09-01T17:44:02.248Z,4.30
2017-09-01T17:46:31.211Z,3.40
2017-09-01T17:49:00.188Z,4.47
2017-09-01T17:51:28.402Z,4.00
2017-09-01T17:53:57.123Z,4.60
2017-09-01T17:56:26.063Z,4.60
2017-09-01T17:58:55.131Z,5.00
2017-09-01T18:01:23.415Z,4.07
2017-09-01T18:03:51.512Z,4.10
2017-09-01T18:06:20.535Z,4.20
2017-09-01T18:08:48.679Z,4.30
2017-09-01T18:11:16.778Z,4.33
2017-09-01T18:13:44.954Z,4.30
2017-09-01T18:16:13.863Z,4.53
2017-09-01T18:18:42.927Z,4.30
2017-09-01T18:21:11.036Z,4.53
2017-09-01T18:23:39.123Z,6.33
2017-09-01T18:26:07.381Z,7.93
2017-09-01T18:28:36.417Z,8.83
2017-09-01T18:31:05.221Z,10.13
2017-09-01T18:33:34.358Z,9.80
2017-09-01T18:36:02.508Z,10.23
2017-09-01T18:41:12.614Z,12.27
2017-09-01T18:43:57.983Z,12.00
2017-09-01T18:46:32.364Z,12.27
2017-09-01T18:49:01.619Z,13.00
2017-09-01T18:51:31.837Z,13.80
2017-09-01T18:54:00.059Z,13.80
2017-09-01T18:59:12.536Z,13.07
2017-09-01T19:01:45.260Z,17.33
2017-09-01T19:04:16.248Z,13.70
2017-09-01T19:06:57.334Z,13.70
2017-09-01T19:09:26.218Z,11.30
2017-09-01T19:11:55.262Z,11.93
2017-09-01T19:14:24.920Z,12.27
2017-09-01T19:16:56.388Z,12.90
2017-09-01T19:19:24.699Z,11.93
2017-09-01T19:25:09.931Z,11.03
2017-09-01T19:36:42.497Z,13.23
2017-09-01T19:39:16.572Z,13.47
2017-09-01T19:41:49.336Z,13.60
2017-09-01T19:44:18.906Z,14.70
2017-09-01T19:46:55.565Z,13.93
2017-09-01T19:49:25.872Z,13.17
2017-09-01T19:52:03.026Z,13.77
2017-09-01T19:55:01.273Z,14.27
2017-09-01T19:57:44.829Z,14.00
2017-09-01T20:00:32.741Z,14.93
2017-09-01T20:03:14.054Z,13.83
2017-09-01T20:05:49.451Z,14.20
2017-09-01T20:08:21.852Z,15.43
2017-09-01T20:11:02.784Z,15.77
2017-09-01T20:13:40.133Z,15.37
2017-09-01T20:16:14.400Z,14.30
2017-09-01T20:18:42.544Z,13.07
2017-09-01T20:21:10.686Z,14.90
2017-09-01T20:23:42.662Z,12.47
2017-09-01T20:26:11.645Z,13.00
2017-09-01T20:28:40.780Z,11.60
2017-09-01T20:31:08.891Z,11.80
2017-09-01T20:33:37.041Z,12.60
2017-09-01T20:36:05.160Z,13.03
2017-09-01T20:38:33.648Z,13.43
2017-09-01T20:41:02.156Z,13.40
2017-09-01T20:43:33.310Z,12.43
2017-09-01T20:46:01.682Z,13.00
2017-09-01T20:48:29.770Z,12.30
2017-09-01T20:50:59.716Z,11.80
2017-09-01T20:53:31.512Z,11.37
2017-09-01T20:55:59.692Z,12.13
2017-09-01T20:58:28.157Z,12.40
2017-09-01T21:00:56.257Z,11.53
2017-09-01T21:03:24.401Z,12.30
2017-09-01T21:05:52.596Z,12.03
2017-09-01T21:08:20.737Z,11.83
2017-09-01T21:10:48.938Z,11.83
2017-09-01T21:13:17.107Z,11.77
2017-09-01T21:15:45.345Z,11.50
2017-09-01T21:18:14.270Z,12.30
2017-09-01T21:20:42.378Z,12.87
2017-09-01T21:23:11.658Z,11.73
2017-09-01T21:25:39.793Z,12.00
2017-09-01T21:28:08.799Z,13.00
2017-09-01T21:30:37.108Z,11.93
2017-09-01T21:33:06.036Z,12.93
2017-09-01T21:35:34.472Z,13.07
2017-09-01T21:38:05.547Z,12.57
2017-09-01T21:40:33.684Z,12.27
2017-09-01T21:43:03.587Z,11.90
2017-09-01T21:45:31.684Z,12.60
2017-09-01T21:47:59.807Z,12.40
2017-09-01T21:50:28.199Z,11.90
2017-09-01T21:52:57.249Z,12.00
2017-09-01T21:55:25.366Z,10.80
2017-09-01T21:57:53.506Z,12.10
2017-09-01T22:00:21.624Z,13.63
2017-09-01T22:02:49.763Z,15.20
2017-09-01T22:05:17.896Z,14.97
2017-09-01T22:07:46.011Z,14.93
2017-09-01T22:10:14.195Z,14.73
2017-09-01T22:12:42.781Z,14.23
2017-09-01T22:15:11.187Z,14.10
2017-09-01T22:17:39.375Z,14.73
2017-09-01T22:20:07.679Z,14.80
2017-09-01T22:22:35.810Z,15.00
2017-09-01T22:25:04.234Z,15.10
2017-09-01T22:27:32.364Z,15.17
2017-09-01T22:30:01.195Z,14.97
2017-09-01T22:32:29.545Z,15.80
2017-09-01T22:34:58.499Z,16.40
2017-09-01T22:37:26.674Z,17.27
2017-09-01T22:39:54.767Z,17.30
2017-09-01T22:42:22.900Z,16.20
2017-09-01T22:44:51.098Z,19.67
2017-09-01T22:47:19.224Z,18.07
2017-09-01T22:49:48.276Z,18.10
2017-09-01T22:52:16.396Z,17.27
2017-09-01T22:54:44.512Z,16.57
2017-09-01T22:57:13.349Z,15.83
2017-09-01T22:59:42.088Z,16.43
2017-09-01T23:02:10.253Z,16.73
2017-09-01T23:04:41.687Z,17.67
2017-09-01T23:07:10.768Z,16.30
2017-09-01T23:09:38.872Z,15.60
2017-09-01T23:12:06.997Z,16.20
2017-09-01T23:14:35.103Z,18.70
2017-09-01T23:17:03.420Z,18.00
2017-09-01T23:19:31.567Z,18.10
2017-09-01T23:21:59.697Z,16.00
2017-09-01T23:24:28.225Z,16.07
2017-09-01T23:27:02.422Z,16.77
2017-09-01T23:29:30.768Z,16.57
2017-09-01T23:31:59.148Z,17.23
2017-09-01T23:34:27.292Z,18.13
2017-09-01T23:36:55.456Z,17.10
2017-09-01T23:39:23.834Z,19.37
2017-09-01T23:41:52.778Z,16.50
2017-09-01T23:44:21.665Z,17.83
2017-09-01T23:46:51.716Z,20.43
2017-09-01T23:49:20.176Z,19.60
2017-09-01T23:51:48.676Z,20.03
2017-09-01T23:54:16.815Z,19.67
2017-09-01T23:56:44.957Z,18.77
2017-09-01T23:59:13.328Z,18.97
